Time;durP1;ratioP1;P1;durP2;ratioP2;P2;SDS_P1;SDS_P2;PMS_P1;PMS_P2;Temp;Humidity;BMP_temperature;BMP_pressure;BME280_temperature;BME280_humidity;BME280_pressure;Samples;Min_cycle;Max_cycle;Signal;HPM_P1;HPM_P2
2022/12/08 03:46:48;;;;;;;6.60;2.25;;;3.00;88.10;;;;;;5502750;23;94435;-68
2022/12/08 03:49:14;;;;;;;6.20;1.83;;;3.10;88.40;;;;;;4802558;29;92168;-67
2022/12/08 03:51:40;;;;;;;7.13;2.03;;;3.10;88.50;;;;;;4801221;29;91346;-67
2022/12/08 03:54:05;;;;;;;7.72;1.95;;;3.20;88.90;;;;;;4794192;29;91539;-68
2022/12/08 03:56:35;;;;;;;6.35;1.70;;;3.20;88.30;;;;;;4798939;29;92851;-68
2022/12/08 03:59:01;;;;;;;4.90;1.63;;;3.20;87.60;;;;;;4798903;29;93346;-68
2022/12/08 04:01:27;;;;;;;5.90;1.83;;;3.20;87.30;;;;;;4799022;29;91364;-70
2022/12/08 04:03:53;;;;;;;5.32;1.60;;;3.30;87.50;;;;;;4783931;29;91435;-71
2022/12/08 04:06:20;;;;;;;9.13;1.55;;;3.30;86.90;;;;;;4788536;29;92602;-70
2022/12/08 04:08:46;;;;;;;4.95;1.25;;;3.30;87.10;;;;;;4785020;29;92314;-70
2022/12/08 04:11:12;;;;;;;3.80;0.95;;;3.40;86.50;;;;;;4788901;29;91740;-68
2022/12/08 04:13:40;;;;;;;5.35;1.60;;;3.40;85.50;;;;;;4804119;29;90584;-67
2022/12/08 04:16:07;;;;;;;4.72;1.40;;;3.30;85.20;;;;;;4803285;29;92461;-68
2022/12/08 04:18:33;;;;;;;4.22;0.95;;;3.30;85.80;;;;;;4802342;29;92471;-68
2022/12/08 04:20:59;;;;;;;3.55;1.00;;;3.30;84.80;;;;;;4798252;29;92825;-69
2022/12/08 04:23:25;;;;;;;3.85;0.93;;;3.30;85.20;;;;;;4808162;29;92017;-69
2022/12/08 04:25:51;;;;;;;4.18;1.20;;;3.30;85.60;;;;;;4820143;29;91854;-69
2022/12/08 04:28:17;;;;;;;6.05;1.17;;;3.20;85.80;;;;;;4801439;29;91882;-69
2022/12/08 04:30:43;;;;;;;7.38;1.40;;;3.20;85.20;;;;;;4801813;29;91744;-68
2022/12/08 04:33:09;;;;;;;12.25;1.45;;;3.20;85.80;;;;;;4819991;29;91789;-69
2022/12/08 04:35:34;;;;;;;7.07;2.03;;;3.10;85.10;;;;;;4819194;29;92097;-68
2022/12/08 04:38:00;;;;;;;4.25;1.20;;;3.10;85.50;;;;;;4816198;29;91799;-69
2022/12/08 04:40:26;;;;;;;4.72;1.40;;;3.10;85.40;;;;;;4787604;29;91817;-69
2022/12/08 04:42:52;;;;;;;4.55;1.10;;;3.00;85.80;;;;;;4796431;29;91557;-67
2022/12/08 04:45:17;;;;;;;5.38;1.23;;;3.10;86.40;;;;;;4800541;29;93122;-69
2022/12/08 04:47:43;;;;;;;4.97;1.50;;;3.10;86.10;;;;;;4791259;29;93649;-69
2022/12/08 04:50:09;;;;;;;5.28;1.40;;;3.10;86.10;;;;;;4783606;29;91580;-71
2022/12/08 04:52:35;;;;;;;7.63;1.80;;;3.10;85.90;;;;;;4782558;29;91920;-67
2022/12/08 04:55:01;;;;;;;5.40;1.20;;;3.10;85.80;;;;;;4762919;29;94544;-67
2022/12/08 04:57:27;;;;;;;4.57;1.40;;;3.10;85.30;;;;;;4772908;29;92096;-68
2022/12/08 04:59:52;;;;;;;6.07;1.30;;;3.10;84.50;;;;;;4793261;29;91671;-68
2022/12/08 05:02:18;;;;;;;4.82;1.33;;;3.10;85.30;;;;;;4780897;29;91024;-68
2022/12/08 05:04:44;;;;;;;5.13;1.40;;;3.10;85.20;;;;;;4782055;29;91838;-68
2022/12/08 05:07:09;;;;;;;6.55;1.25;;;3.10;85.50;;;;;;4774391;29;91548;-71
2022/12/08 05:09:35;;;;;;;5.07;1.33;;;3.00;84.80;;;;;;4783417;29;93183;-69
2022/12/08 05:12:01;;;;;;;3.55;1.00;;;3.00;85.00;;;;;;4788713;29;92121;-69
2022/12/08 05:14:27;;;;;;;3.28;0.70;;;3.00;84.50;;;;;;4784210;29;92402;-67
2022/12/08 05:16:52;;;;;;;3.70;0.75;;;3.00;84.30;;;;;;4787584;29;92062;-67
2022/12/08 05:19:18;;;;;;;3.17;0.77;;;3.00;84.20;;;;;;4782203;29;92191;-69
2022/12/08 05:21:44;;;;;;;3.33;0.88;;;3.00;83.60;;;;;;4782024;29;91789;-67
2022/12/08 05:24:10;;;;;;;3.97;0.90;;;3.00;83.10;;;;;;4782709;29;92856;-70
2022/12/08 05:26:35;;;;;;;4.32;0.80;;;2.90;82.90;;;;;;4781706;29;91668;-70
2022/12/08 05:29:01;;;;;;;3.80;0.77;;;2.90;82.50;;;;;;4784996;29;91372;-69
2022/12/08 05:31:27;;;;;;;5.13;0.73;;;2.90;82.70;;;;;;4785230;29;91798;-69
2022/12/08 05:33:53;;;;;;;3.55;0.90;;;2.80;83.30;;;;;;4786018;29;93570;-69
2022/12/08 05:36:19;;;;;;;5.15;0.93;;;2.70;83.40;;;;;;4784901;29;92493;-70
2022/12/08 05:38:45;;;;;;;5.22;0.77;;;2.70;84.10;;;;;;4782792;29;91348;-70
2022/12/08 05:41:17;;;;;;;4.18;0.88;;;2.70;83.90;;;;;;4785285;29;92125;-69
2022/12/08 05:43:43;;;;;;;4.45;0.50;;;2.80;83.50;;;;;;4785390;29;92513;-69
2022/12/08 05:46:09;;;;;;;5.40;0.80;;;2.80;83.80;;;;;;4784874;29;91950;-68
2022/12/08 05:48:35;;;;;;;5.20;1.00;;;2.80;83.70;;;;;;4788083;29;91977;-69
2022/12/08 05:51:01;;;;;;;6.22;1.00;;;2.80;83.70;;;;;;4787889;29;90959;-69
2022/12/08 05:53:26;;;;;;;4.28;1.10;;;2.90;82.90;;;;;;4784331;29;92430;-69
2022/12/08 05:55:52;;;;;;;8.35;1.00;;;2.90;83.20;;;;;;4783880;29;92119;-69
2022/12/08 05:58:20;;;;;;;5.43;0.88;;;2.90;83.10;;;;;;4784853;29;92387;-69
2022/12/08 06:00:47;;;;;;;4.03;0.68;;;3.00;83.00;;;;;;4786039;29;91995;-69
2022/12/08 06:03:15;;;;;;;3.63;0.63;;;2.90;82.60;;;;;;4785538;29;92242;-69
2022/12/08 06:05:43;;;;;;;3.20;0.70;;;2.80;82.30;;;;;;4774786;29;91921;-69
2022/12/08 06:08:08;;;;;;;2.83;0.68;;;2.80;82.80;;;;;;4782190;29;91461;-69
2022/12/08 06:10:34;;;;;;;5.18;0.85;;;2.70;82.90;;;;;;4774296;29;92146;-69
2022/12/08 06:13:00;;;;;;;5.13;0.65;;;2.80;82.40;;;;;;4784245;29;92194;-68
2022/12/08 06:15:25;;;;;;;2.50;0.50;;;2.90;82.30;;;;;;4783601;29;91441;-68
2022/12/08 06:17:51;;;;;;;2.45;0.50;;;2.90;81.20;;;;;;4784317;29;91966;-69
2022/12/08 06:20:17;;;;;;;4.28;0.73;;;2.80;81.40;;;;;;4784846;29;91385;-69
2022/12/08 06:22:42;;;;;;;2.42;0.57;;;2.80;81.60;;;;;;4786096;29;93020;-70
2022/12/08 06:25:09;;;;;;;3.53;0.60;;;2.70;81.90;;;;;;4787521;29;92753;-68
2022/12/08 06:27:34;;;;;;;2.85;0.40;;;2.60;82.30;;;;;;4779682;29;91748;-68
2022/12/08 06:30:00;;;;;;;4.53;0.52;;;2.50;82.30;;;;;;4782946;29;91910;-68
2022/12/08 06:32:26;;;;;;;3.28;0.52;;;2.40;82.70;;;;;;4779318;29;92119;-68
2022/12/08 06:34:52;;;;;;;3.60;0.50;;;2.40;82.90;;;;;;4772998;29;92183;-68
2022/12/08 06:37:18;;;;;;;3.63;0.60;;;2.30;83.70;;;;;;4776022;29;91387;-69
2022/12/08 06:39:43;;;;;;;3.78;0.63;;;2.30;83.90;;;;;;4783338;29;91270;-69
2022/12/08 06:44:53;;;;;;;4.70;0.75;;;2.30;83.80;;;;;;4772762;29;92531;-67
2022/12/08 06:47:22;;;;;;;5.18;0.70;;;2.40;83.70;;;;;;4779905;29;92404;-69
2022/12/08 06:49:47;;;;;;;5.55;0.98;;;2.40;84.40;;;;;;4783349;29;92047;-69
2022/12/08 06:52:14;;;;;;;7.47;1.10;;;2.40;84.00;;;;;;4782856;29;92433;-67
2022/12/08 06:54:39;;;;;;;6.80;0.88;;;2.50;83.50;;;;;;4782829;29;93100;-69
2022/12/08 06:57:05;;;;;;;5.50;0.70;;;2.50;83.60;;;;;;4783291;29;91802;-67
2022/12/08 06:59:31;;;;;;;4.25;0.73;;;2.50;83.90;;;;;;4782241;29;92324;-67
2022/12/08 07:01:57;;;;;;;7.85;0.80;;;2.50;83.70;;;;;;4781484;29;92416;-68
2022/12/08 07:04:23;;;;;;;3.45;0.73;;;2.50;83.20;;;;;;4772465;29;91573;-68
2022/12/08 07:06:48;;;;;;;3.45;0.63;;;2.50;82.70;;;;;;4781746;29;92042;-68
2022/12/08 07:09:14;;;;;;;4.32;0.70;;;2.50;82.70;;;;;;4782959;29;91911;-67
2022/12/08 07:11:40;;;;;;;2.70;0.63;;;2.50;82.80;;;;;;4781677;29;93485;-68
2022/12/08 07:14:06;;;;;;;3.80;0.82;;;2.60;82.50;;;;;;4781212;29;92787;-67
2022/12/08 07:16:31;;;;;;;4.53;0.80;;;2.50;82.10;;;;;;4783669;29;92124;-68
2022/12/08 07:18:58;;;;;;;3.65;0.80;;;2.50;82.60;;;;;;4779443;29;91955;-68
2022/12/08 07:21:24;;;;;;;5.65;1.25;;;2.60;82.60;;;;;;4788387;29;91896;-68
2022/12/08 07:23:50;;;;;;;3.67;0.80;;;2.60;82.40;;;;;;4780191;29;91771;-69
2022/12/08 07:26:16;;;;;;;4.28;0.80;;;2.60;82.00;;;;;;4777940;29;92195;-67
2022/12/08 07:28:42;;;;;;;5.40;0.70;;;2.70;81.60;;;;;;4783375;29;91494;-67
2022/12/08 07:31:16;;;;;;;3.78;0.68;;;2.70;81.00;;;;;;4784772;29;92012;-67
2022/12/08 07:33:42;;;;;;;3.35;0.47;;;2.70;80.90;;;;;;4787449;29;92113;-67
2022/12/08 07:36:08;;;;;;;3.45;0.80;;;2.70;80.90;;;;;;4778603;29;92747;-67
2022/12/08 07:38:34;;;;;;;4.68;0.90;;;2.70;80.60;;;;;;4782754;29;92036;-67
2022/12/08 07:41:00;;;;;;;5.88;0.80;;;2.80;80.40;;;;;;4782089;29;91598;-67
2022/12/08 07:43:26;;;;;;;3.75;0.90;;;2.90;80.50;;;;;;4786682;29;91753;-68
2022/12/08 07:45:51;;;;;;;5.75;0.75;;;2.90;79.10;;;;;;4781065;29;92175;-68
2022/12/08 07:48:18;;;;;;;3.97;1.10;;;2.90;79.50;;;;;;4782141;29;92015;-67
2022/12/08 07:50:44;;;;;;;4.22;0.88;;;2.90;80.10;;;;;;4777101;29;93241;-67
2022/12/08 07:53:10;;;;;;;5.88;1.80;;;3.00;79.60;;;;;;4775746;29;92350;-68
2022/12/08 07:55:40;;;;;;;4.97;1.20;;;3.10;79.30;;;;;;4781748;29;91718;-65
2022/12/08 07:58:06;;;;;;;4.82;1.70;;;3.00;78.30;;;;;;4782269;29;92044;-66
2022/12/08 08:00:32;;;;;;;11.23;3.65;;;3.10;78.60;;;;;;4781573;29;93418;-67
2022/12/08 08:02:58;;;;;;;6.68;2.00;;;3.20;77.90;;;;;;4781280;29;93387;-68
2022/12/08 08:05:23;;;;;;;4.13;0.80;;;3.20;77.20;;;;;;4781646;29;91519;-69
2022/12/08 08:07:49;;;;;;;3.45;0.73;;;3.30;75.90;;;;;;4778405;29;91480;-68
2022/12/08 08:10:15;;;;;;;5.50;1.38;;;3.40;76.00;;;;;;4784307;29;93665;-67
2022/12/08 08:12:40;;;;;;;4.28;0.80;;;3.50;75.70;;;;;;4782220;29;91514;-68
2022/12/08 08:15:07;;;;;;;9.95;3.95;;;3.50;74.90;;;;;;4780368;29;91792;-66
2022/12/08 08:17:35;;;;;;;4.10;0.70;;;3.60;75.70;;;;;;4779004;29;91797;-68
2022/12/08 08:20:01;;;;;;;7.18;2.50;;;3.60;75.20;;;;;;4779088;29;92139;-68
2022/12/08 08:22:27;;;;;;;4.05;1.30;;;3.60;75.80;;;;;;4785156;29;92577;-68
2022/12/08 08:24:53;;;;;;;4.82;0.85;;;3.70;75.80;;;;;;4780177;29;92281;-68
2022/12/08 08:27:19;;;;;;;3.63;0.85;;;3.80;76.10;;;;;;4781979;29;91757;-68
2022/12/08 08:29:45;;;;;;;5.55;1.70;;;4.10;76.30;;;;;;4781977;29;92491;-68
2022/12/08 08:32:11;;;;;;;6.55;1.13;;;4.20;75.40;;;;;;4772712;29;92779;-69
2022/12/08 08:34:36;;;;;;;7.93;2.60;;;4.30;75.20;;;;;;4775089;29;91578;-69
2022/12/08 08:37:02;;;;;;;5.18;1.50;;;4.50;74.40;;;;;;4779262;29;92062;-69
2022/12/08 08:39:30;;;;;;;5.50;1.13;;;4.60;74.20;;;;;;4778867;29;92630;-69
2022/12/08 08:41:56;;;;;;;4.72;1.65;;;4.50;74.20;;;;;;4781602;29;92086;-67
2022/12/08 08:44:22;;;;;;;4.18;1.17;;;4.50;74.80;;;;;;4783725;29;92135;-68
2022/12/08 08:46:47;;;;;;;5.82;1.17;;;4.60;74.30;;;;;;4778583;29;91976;-69
2022/12/08 08:49:13;;;;;;;7.43;1.30;;;4.50;74.10;;;;;;4782916;29;92893;-68
2022/12/08 08:51:38;;;;;;;5.43;1.20;;;4.60;75.20;;;;;;4777566;29;93008;-68
2022/12/08 08:54:04;;;;;;;4.57;1.13;;;4.80;74.10;;;;;;4783655;29;91983;-68
2022/12/08 08:56:30;;;;;;;4.22;1.30;;;4.90;74.30;;;;;;4783484;29;92647;-68
2022/12/08 08:58:56;;;;;;;5.28;1.75;;;5.10;74.40;;;;;;4788384;29;92749;-69
2022/12/08 09:01:24;;;;;;;6.47;1.90;;;5.30;72.30;;;;;;4775719;29;91487;-68
2022/12/08 09:03:51;;;;;;;8.10;1.52;;;5.30;72.50;;;;;;4790203;29;92120;-68
2022/12/08 09:06:17;;;;;;;4.53;1.70;;;5.50;71.80;;;;;;4781165;29;91534;-69
2022/12/08 09:08:44;;;;;;;6.10;1.67;;;5.70;72.10;;;;;;4785418;29;92463;-68
2022/12/08 09:11:10;;;;;;;6.97;1.15;;;5.80;69.80;;;;;;4783783;29;92368;-69
2022/12/08 09:13:36;;;;;;;5.80;0.90;;;6.00;69.10;;;;;;4783446;29;92514;-69
2022/12/08 09:16:04;;;;;;;6.63;2.10;;;6.20;68.00;;;;;;4781912;29;91774;-70
2022/12/08 09:18:31;;;;;;;4.18;0.90;;;6.50;69.10;;;;;;4778163;29;93830;-69
2022/12/08 09:21:07;;;;;;;7.25;0.80;;;7.00;66.20;;;;;;4780565;29;92779;-69
2022/12/08 09:23:33;;;;;;;7.13;1.10;;;7.10;66.10;;;;;;4786043;29;92119;-70
2022/12/08 09:25:59;;;;;;;4.00;0.88;;;7.30;66.20;;;;;;4784174;29;91431;-69
2022/12/08 09:28:25;;;;;;;6.80;1.00;;;7.50;64.30;;;;;;4784944;29;92742;-69
2022/12/08 09:30:51;;;;;;;3.35;0.88;;;8.00;62.80;;;;;;4787330;29;91582;-70
2022/12/08 09:33:17;;;;;;;7.78;0.73;;;8.20;61.00;;;;;;4777481;29;91347;-69
2022/12/08 09:35:42;;;;;;;6.43;0.85;;;8.30;60.60;;;;;;4784054;29;91869;-70
2022/12/08 09:38:08;;;;;;;4.38;1.00;;;8.10;62.20;;;;;;4779563;29;93463;-68
2022/12/08 09:40:43;;;;;;;2.97;0.80;;;8.00;61.80;;;;;;4785986;29;93380;-69
2022/12/08 09:43:18;;;;;;;4.28;0.90;;;9.30;58.30;;;;;;4783060;29;92679;-68
2022/12/08 09:45:45;;;;;;;3.42;0.75;;;9.60;56.90;;;;;;4784072;29;93195;-69
2022/12/08 09:48:18;;;;;;;2.08;0.40;;;9.10;57.20;;;;;;4784274;29;92196;-70
2022/12/08 09:50:53;;;;;;;3.33;0.80;;;8.70;58.70;;;;;;4784107;29;91506;-70
2022/12/08 09:53:29;;;;;;;7.30;0.88;;;8.20;59.20;;;;;;4782119;29;92173;-70
2022/12/08 09:56:05;;;;;;;4.22;0.80;;;8.20;60.90;;;;;;4778513;29;90704;-70
2022/12/08 09:58:52;;;;;;;6.55;1.33;;;8.40;60.80;;;;;;4785176;29;91954;-69
2022/12/08 10:01:20;;;;;;;3.88;1.00;;;8.90;59.90;;;;;;4777545;29;93698;-70
2022/12/08 10:03:46;;;;;;;7.88;1.20;;;9.10;57.40;;;;;;4777999;29;92695;-70
2022/12/08 10:06:38;;;;;;;5.43;1.00;;;8.90;57.80;;;;;;4786559;29;91735;-71
2022/12/08 10:09:04;;;;;;;5.60;0.90;;;8.30;58.90;;;;;;4767194;29;93286;-70
2022/12/08 10:11:45;;;;;;;3.47;1.10;;;7.80;60.80;;;;;;4785462;29;94197;-71
2022/12/08 10:14:28;;;;;;;3.35;0.80;;;7.40;60.50;;;;;;4787090;29;92210;-70
2022/12/08 10:17:03;;;;;;;3.08;0.70;;;7.00;61.30;;;;;;4780459;29;92458;-70
2022/12/08 10:19:30;;;;;;;4.18;0.70;;;6.60;62.50;;;;;;4791372;29;92438;-69
2022/12/08 10:21:56;;;;;;;6.20;0.73;;;6.40;63.50;;;;;;4789271;29;92095;-70
2022/12/08 10:24:37;;;;;;;2.60;0.80;;;6.50;63.20;;;;;;4785431;29;91299;-69
2022/12/08 10:27:08;;;;;;;2.25;0.60;;;6.70;63.50;;;;;;4784065;29;91615;-71
2022/12/08 10:29:34;;;;;;;2.88;0.60;;;6.60;62.60;;;;;;4790703;29;93225;-69
2022/12/08 10:32:07;;;;;;;8.82;0.60;;;6.80;62.90;;;;;;4791276;29;92379;-70
2022/12/08 10:34:33;;;;;;;2.05;0.50;;;6.70;63.50;;;;;;4786658;29;92110;-69
2022/12/08 10:36:59;;;;;;;3.45;0.43;;;7.00;63.10;;;;;;4789156;29;91595;-71
2022/12/08 10:39:39;;;;;;;4.47;0.63;;;7.10;64.00;;;;;;4793993;29;92235;-69
2022/12/08 10:42:13;;;;;;;6.03;0.57;;;6.80;63.00;;;;;;4781971;29;92256;-69
2022/12/08 10:45:07;;;;;;;2.35;0.60;;;6.80;64.30;;;;;;4786307;29;91556;-69
2022/12/08 10:47:39;;;;;;;6.13;0.90;;;6.70;65.50;;;;;;4784202;29;90828;-69
2022/12/08 10:50:27;;;;;;;2.22;0.50;;;6.70;64.30;;;;;;4780993;29;92269;-71
2022/12/08 10:52:57;;;;;;;2.50;0.55;;;6.70;65.00;;;;;;4759462;29;92423;-70
2022/12/08 10:55:23;;;;;;;6.68;0.80;;;6.80;67.60;;;;;;4765424;29;92873;-69
2022/12/08 10:57:49;;;;;;;3.47;0.90;;;7.00;68.40;;;;;;4757411;29;91858;-70
2022/12/08 11:00:18;;;;;;;3.90;0.77;;;7.10;65.10;;;;;;4770694;29;92951;-71
2022/12/08 11:03:21;;;;;;;3.58;0.65;;;7.10;65.30;;;;;;4775905;29;93822;-68
2022/12/08 11:05:46;;;;;;;3.67;0.90;;;7.20;64.00;;;;;;4780436;29;92622;-72
2022/12/08 11:08:15;;;;;;;3.63;0.80;;;7.20;65.10;;;;;;4763383;29;92583;-70
2022/12/08 11:10:44;;;;;;;4.07;1.00;;;7.30;65.60;;;;;;4778029;29;93039;-69
2022/12/08 11:13:25;;;;;;;3.30;0.95;;;7.40;65.00;;;;;;4765831;29;92060;-68
2022/12/08 11:15:55;;;;;;;2.67;0.85;;;7.40;64.20;;;;;;4774503;29;91979;-68
2022/12/08 11:18:41;;;;;;;3.20;0.88;;;7.40;63.60;;;;;;4770619;29;91446;-69
2022/12/08 11:21:16;;;;;;;6.13;0.80;;;7.40;62.10;;;;;;4785345;29;93967;-69
2022/12/08 11:23:49;;;;;;;3.03;0.85;;;7.30;62.70;;;;;;4778834;29;92453;-70
2022/12/08 11:26:24;;;;;;;3.75;1.02;;;7.30;61.70;;;;;;4774377;29;91548;-69
2022/12/08 11:28:50;;;;;;;3.72;1.05;;;7.10;62.50;;;;;;4785999;29;92139;-70
2022/12/08 11:31:32;;;;;;;4.43;0.90;;;7.20;63.10;;;;;;4780900;29;91896;-69
2022/12/08 11:33:58;;;;;;;3.88;1.20;;;7.20;63.20;;;;;;4778370;29;91531;-69
2022/12/08 11:36:28;;;;;;;5.35;1.17;;;7.20;63.00;;;;;;4782803;29;91849;-69
2022/12/08 11:39:00;;;;;;;3.58;1.20;;;7.40;65.20;;;;;;4780777;29;91021;-70
2022/12/08 11:41:33;;;;;;;3.65;0.88;;;7.50;63.40;;;;;;4779771;29;92988;-68
2022/12/08 11:44:41;;;;;;;3.80;1.10;;;7.70;64.20;;;;;;4782987;29;91614;-68
2022/12/08 11:47:11;;;;;;;5.97;1.83;;;7.70;63.40;;;;;;4733547;29;1289090;-69
2022/12/08 11:49:39;;;;;;;5.25;1.75;;;7.30;63.20;;;;;;4781979;29;91450;-68
2022/12/08 11:52:17;;;;;;;5.20;1.40;;;7.20;63.30;;;;;;4786460;29;92319;-69
2022/12/08 11:55:12;;;;;;;5.53;1.90;;;7.10;65.40;;;;;;4779532;29;91745;-70
2022/12/08 11:57:38;;;;;;;7.20;2.33;;;7.10;65.50;;;;;;4772993;29;92413;-69
2022/12/08 12:00:05;;;;;;;7.78;2.30;;;7.10;64.90;;;;;;4781189;29;92147;-69
2022/12/08 12:02:41;;;;;;;6.10;2.13;;;7.00;65.70;;;;;;4786579;29;92315;-70
2022/12/08 12:05:28;;;;;;;6.43;2.80;;;7.00;66.90;;;;;;4780042;29;91620;-70
2022/12/08 12:08:03;;;;;;;7.85;2.47;;;7.00;66.60;;;;;;4784580;29;91824;-69
2022/12/08 12:10:53;;;;;;;6.18;2.60;;;7.10;65.50;;;;;;4781209;29;91894;-68
2022/12/08 12:13:30;;;;;;;6.97;2.00;;;7.00;65.60;;;;;;4778561;29;93471;-69
2022/12/08 12:16:08;;;;;;;7.15;2.25;;;7.00;66.20;;;;;;4782308;29;92381;-69
2022/12/08 12:18:59;;;;;;;9.75;2.58;;;7.00;65.70;;;;;;4789722;29;92108;-68
2022/12/08 12:21:38;;;;;;;6.40;2.45;;;7.00;66.90;;;;;;4782210;29;91805;-67
2022/12/08 12:24:26;;;;;;;8.07;2.35;;;7.00;66.80;;;;;;4778096;29;92567;-68
2022/12/08 12:27:03;;;;;;;5.80;2.08;;;7.00;67.10;;;;;;4782945;29;91376;-67
2022/12/08 12:29:34;;;;;;;8.60;2.38;;;6.90;67.80;;;;;;4774377;29;92198;-68
2022/12/08 12:32:07;;;;;;;7.78;2.92;;;7.00;66.50;;;;;;4786354;29;93604;-67
2022/12/08 12:34:57;;;;;;;9.00;2.83;;;7.10;66.40;;;;;;4780234;29;92903;-67
2022/12/08 12:37:33;;;;;;;8.30;2.95;;;7.10;67.50;;;;;;4781004;29;91543;-67
2022/12/08 12:40:02;;;;;;;9.60;3.03;;;7.00;65.80;;;;;;4792066;29;92645;-69
2022/12/08 12:42:37;;;;;;;9.02;3.22;;;6.70;66.30;;;;;;4785770;29;91998;-67
2022/12/08 12:45:26;;;;;;;7.95;2.97;;;6.60;67.30;;;;;;4784506;29;92269;-66
2022/12/08 12:48:18;;;;;;;7.63;3.00;;;6.50;67.10;;;;;;4783966;29;92491;-69
2022/12/08 12:50:45;;;;;;;8.57;2.60;;;6.50;67.10;;;;;;4785364;29;92534;-67
2022/12/08 12:53:37;;;;;;;7.25;3.00;;;6.50;67.60;;;;;;4782840;29;91391;-69
2022/12/08 12:56:03;;;;;;;10.93;2.95;;;6.60;67.80;;;;;;4780603;29;92661;-68
2022/12/08 12:58:29;;;;;;;8.52;2.75;;;6.70;68.00;;;;;;4783696;29;92183;-69
2022/12/08 13:01:10;;;;;;;8.82;3.83;;;6.60;68.50;;;;;;4784459;29;91783;-70
2022/12/08 13:03:59;;;;;;;10.20;3.03;;;6.50;69.20;;;;;;4777876;29;91815;-69
2022/12/08 13:06:37;;;;;;;8.98;3.40;;;6.50;68.60;;;;;;4785148;29;93889;-69
2022/12/08 13:09:03;;;;;;;8.00;3.20;;;6.40;70.10;;;;;;4784377;29;93438;-70
2022/12/08 13:11:43;;;;;;;8.02;3.45;;;6.40;69.70;;;;;;4787582;29;91709;-69
2022/12/08 13:14:34;;;;;;;9.02;4.00;;;6.40;70.10;;;;;;4783744;29;92328;-68
2022/12/08 13:17:03;;;;;;;11.40;4.22;;;6.40;71.10;;;;;;4784715;29;91980;-69
2022/12/08 13:19:31;;;;;;;11.23;3.85;;;6.30;71.20;;;;;;4779544;29;92418;-69
2022/12/08 13:21:57;;;;;;;8.73;3.50;;;6.30;71.20;;;;;;4787999;29;92632;-69
2022/12/08 13:24:23;;;;;;;9.57;3.80;;;6.20;72.10;;;;;;4787178;29;92048;-70
2022/12/08 13:26:49;;;;;;;9.23;3.47;;;6.10;72.90;;;;;;4784021;29;92599;-68
2022/12/08 13:29:21;;;;;;;8.75;3.70;;;6.00;72.70;;;;;;4785081;29;92637;-68
2022/12/08 13:31:58;;;;;;;12.20;5.28;;;6.00;73.60;;;;;;4783061;29;93541;-69
2022/12/08 13:34:24;;;;;;;;;;;6.00;74.30;;;;;;4783569;29;92023;-68
2022/12/08 13:37:12;;;;;;;10.52;3.83;;;6.00;73.30;;;;;;4781729;29;92290;-68
2022/12/08 13:39:52;;;;;;;11.00;4.13;;;5.90;73.20;;;;;;4786508;29;92138;-70
2022/12/08 13:42:30;;;;;;;9.20;4.10;;;5.80;73.50;;;;;;4790150;29;91895;-69
2022/12/08 13:45:02;;;;;;;11.20;3.92;;;5.70;74.40;;;;;;4777966;29;91804;-69
2022/12/08 13:47:35;;;;;;;9.18;3.80;;;5.70;74.10;;;;;;4781804;29;93529;-68
2022/12/08 13:50:12;;;;;;;10.95;3.97;;;5.70;74.60;;;;;;4784088;29;91226;-69
2022/12/08 13:52:54;;;;;;;11.05;4.30;;;5.60;74.40;;;;;;4787389;29;91947;-70
2022/12/08 13:55:34;;;;;;;10.25;4.03;;;5.60;74.60;;;;;;4782526;29;91865;-71
2022/12/08 13:58:00;;;;;;;11.80;4.90;;;5.60;74.80;;;;;;4786304;29;93799;-70
2022/12/08 14:00:28;;;;;;;11.93;4.90;;;5.50;74.90;;;;;;4785711;29;92750;-71
2022/12/08 14:02:58;;;;;;;11.05;4.75;;;5.50;76.00;;;;;;4782745;29;91331;-70
2022/12/08 14:05:26;;;;;;;12.40;5.25;;;5.50;75.40;;;;;;4781741;29;92045;-70
2022/12/08 14:07:54;;;;;;;12.35;4.53;;;5.50;76.30;;;;;;4788515;29;92027;-70
2022/12/08 14:10:29;;;;;;;12.27;4.47;;;5.40;76.00;;;;;;4787587;29;92402;-69
2022/12/08 14:13:01;;;;;;;13.32;5.07;;;5.40;76.50;;;;;;4782686;29;91388;-70
2022/12/08 14:15:30;;;;;;;11.60;4.50;;;5.30;77.00;;;;;;4780311;29;91940;-71
2022/12/08 14:17:56;;;;;;;9.75;4.65;;;5.30;76.40;;;;;;4779235;29;92534;-70
2022/12/08 14:20:26;;;;;;;11.25;4.68;;;5.30;76.60;;;;;;4788258;29;91448;-69
2022/12/08 14:22:52;;;;;;;10.85;4.50;;;5.30;76.20;;;;;;4780897;29;92438;-69
2022/12/08 14:25:19;;;;;;;11.07;4.65;;;5.30;76.80;;;;;;4787438;29;93112;-69
2022/12/08 14:27:45;;;;;;;14.80;5.00;;;5.20;76.90;;;;;;4787869;29;91888;-69
2022/12/08 14:30:14;;;;;;;10.63;4.57;;;5.20;77.10;;;;;;4788379;29;91883;-69
2022/12/08 14:32:51;;;;;;;10.70;5.10;;;5.20;77.30;;;;;;4789798;29;92287;-69
2022/12/08 14:35:17;;;;;;;;;;;5.20;77.60;;;;;;4783556;29;93309;-69
2022/12/08 14:37:49;;;;;;;9.93;4.35;;;5.10;77.40;;;;;;4796457;29;92138;-69
2022/12/08 14:40:20;;;;;;;11.80;4.30;;;5.10;77.40;;;;;;4785224;29;92382;-69
2022/12/08 14:42:49;;;;;;;11.60;4.55;;;5.00;77.40;;;;;;4782032;29;92141;-69
2022/12/08 14:45:18;;;;;;;11.15;4.72;;;5.00;77.60;;;;;;4777001;29;91558;-68
2022/12/08 14:47:44;;;;;;;11.68;4.85;;;5.00;77.80;;;;;;4778522;29;93712;-68
2022/12/08 14:50:52;;;;;;;13.30;5.43;;;4.90;77.90;;;;;;4784209;29;93445;-67
2022/12/08 14:53:18;;;;;;;14.65;5.18;;;4.80;77.80;;;;;;4776609;29;91467;-68
2022/12/08 14:55:47;;;;;;;12.98;4.97;;;4.80;78.30;;;;;;4777705;29;92201;-68
2022/12/08 14:58:26;;;;;;;11.52;5.50;;;4.70;78.30;;;;;;4780485;29;91929;-66
2022/12/08 15:00:57;;;;;;;14.07;5.80;;;4.70;78.60;;;;;;4773916;29;92111;-68
2022/12/08 15:03:25;;;;;;;13.05;6.18;;;4.70;78.50;;;;;;4781291;29;91709;-70
2022/12/08 15:05:55;;;;;;;16.33;6.20;;;4.60;78.70;;;;;;4785003;29;91875;-69
2022/12/08 15:08:21;;;;;;;16.75;6.10;;;4.60;79.00;;;;;;4786196;29;92810;-69
2022/12/08 15:11:36;;;;;;;13.38;5.50;;;4.50;79.20;;;;;;4779521;29;91489;-69
2022/12/08 15:14:01;;;;;;;19.30;6.97;;;4.40;79.40;;;;;;4762581;29;92347;-69
2022/12/08 15:16:42;;;;;;;18.27;7.45;;;4.40;79.30;;;;;;4792626;29;91403;-69
2022/12/08 15:19:16;;;;;;;20.52;7.53;;;4.30;79.70;;;;;;4781361;29;92221;-69
2022/12/08 15:21:43;;;;;;;17.95;7.75;;;4.30;79.90;;;;;;4781438;29;93520;-68
2022/12/08 15:24:13;;;;;;;16.55;6.53;;;4.30;81.30;;;;;;4782404;29;91803;-69
2022/12/08 15:26:46;;;;;;;15.07;6.47;;;4.30;82.10;;;;;;4786590;29;91638;-69
2022/12/08 15:29:20;;;;;;;13.55;6.47;;;4.30;81.70;;;;;;4784380;29;92546;-69
2022/12/08 15:31:45;;;;;;;14.15;5.93;;;4.20;81.80;;;;;;4791062;29;91714;-68
2022/12/08 15:34:11;;;;;;;15.57;5.80;;;4.20;80.90;;;;;;4787366;29;91987;-68
2022/12/08 15:36:38;;;;;;;13.27;5.68;;;4.10;81.10;;;;;;4787133;29;91570;-68
2022/12/08 15:39:31;;;;;;;12.63;5.25;;;4.00;81.30;;;;;;4784983;29;93488;-68
2022/12/08 15:41:58;;;;;;;12.90;5.53;;;4.00;81.50;;;;;;4785897;29;92386;-68
2022/12/08 15:44:24;;;;;;;14.55;6.70;;;3.90;82.00;;;;;;4790853;29;91776;-68
2022/12/08 15:46:51;;;;;;;15.80;6.85;;;3.80;82.40;;;;;;4785452;29;92001;-67
2022/12/08 15:49:21;;;;;;;18.60;7.05;;;3.80;82.70;;;;;;4784999;29;94425;-67
2022/12/08 15:51:47;;;;;;;16.48;6.65;;;3.70;82.50;;;;;;4785825;29;92000;-67
2022/12/08 15:54:13;;;;;;;15.00;6.55;;;3.70;83.10;;;;;;4787413;29;91442;-67
2022/12/08 15:56:53;;;;;;;16.08;6.55;;;3.60;83.40;;;;;;4785317;29;91190;-69
2022/12/08 15:59:21;;;;;;;14.73;6.15;;;3.60;84.00;;;;;;4786687;29;93284;-67
2022/12/08 16:01:47;;;;;;;17.45;6.70;;;3.50;83.90;;;;;;4786575;29;94069;-69
2022/12/08 16:04:21;;;;;;;15.63;6.47;;;3.40;84.50;;;;;;4781711;29;92964;-70
2022/12/08 16:06:49;;;;;;;15.68;5.85;;;3.40;84.70;;;;;;4785693;29;91345;-69
2022/12/08 16:09:37;;;;;;;14.35;6.13;;;3.30;87.60;;;;;;4781684;29;93991;-67
2022/12/08 16:14:48;;;;;;;21.00;7.25;;;3.30;86.90;;;;;;4785917;29;92482;-68
2022/12/08 16:17:15;;;;;;;20.40;8.13;;;3.30;86.80;;;;;;4782070;29;91797;-69
2022/12/08 16:19:43;;;;;;;19.13;7.40;;;3.20;86.40;;;;;;4780099;29;92330;-69
2022/12/08 16:22:26;;;;;;;21.77;8.68;;;3.20;86.30;;;;;;4780375;29;92167;-68
2022/12/08 16:24:52;;;;;;;17.70;7.57;;;3.10;86.50;;;;;;4784257;29;91682;-71
2022/12/08 16:27:26;;;;;;;18.48;7.15;;;3.00;86.50;;;;;;4786134;29;91895;-68
2022/12/08 16:29:53;;;;;;;17.45;6.93;;;2.90;86.70;;;;;;4780421;29;93727;-67
2022/12/08 16:32:18;;;;;;;17.77;7.50;;;2.90;87.30;;;;;;4784668;29;92818;-67
2022/12/08 16:34:44;;;;;;;22.95;7.18;;;2.80;87.40;;;;;;4785548;29;91788;-69
2022/12/08 16:37:20;;;;;;;20.63;7.78;;;2.70;87.80;;;;;;4784834;29;91585;-68
2022/12/08 16:39:50;;;;;;;29.95;9.43;;;2.70;87.80;;;;;;4785344;29;91809;-68
2022/12/08 16:45:04;;;;;;;23.08;7.95;;;2.60;89.20;;;;;;4796913;29;93664;-68
2022/12/08 16:47:29;;;;;;;31.00;10.80;;;2.60;89.40;;;;;;4785798;29;91405;-67
2022/12/08 16:49:55;;;;;;;33.03;12.68;;;2.50;89.70;;;;;;4789080;29;91969;-67
2022/12/08 16:52:20;;;;;;;28.27;9.88;;;2.50;89.70;;;;;;4775028;29;92051;-67
2022/12/08 16:54:46;;;;;;;41.28;13.05;;;2.40;89.90;;;;;;4780757;29;92824;-67
2022/12/08 16:57:12;;;;;;;31.65;10.32;;;2.40;90.40;;;;;;4782324;29;92855;-67
2022/12/08 16:59:38;;;;;;;35.53;10.88;;;2.40;90.20;;;;;;4783682;29;92451;-67
2022/12/08 17:02:04;;;;;;;34.15;11.18;;;2.40;90.00;;;;;;4781775;29;92484;-69
2022/12/08 17:04:30;;;;;;;25.23;9.18;;;2.40;90.40;;;;;;4779585;29;91921;-67